Morejarl — LLWD — position and weather

sailwx.info

Track history (hours):
 
Tides and Currents Weather Stations Pressure Air Temp Water Temp Dewpoint Dewpoint Depression Visibility Wind Speed Wind Dir Waves Ship Positions

Morejarl

Last reported at 2014-Sep-22 14:34 UTC. Time now 2014-Sep-23 06:22 UTC.
Position N 63°26' E 010°23'.

Length 35 m; draft 1.9 m.

Type: High speed craft. MMSI: 258561000.

Date/timePositionNaut miles runAvg speedWind from/ knotsBaromVisibWave heightAir tempDewpointWater temp
2014-Sep-22 14:34N 63°26' E 010°23'0 0.4
2014-Sep-22 13:34N 63°26' E 010°24'7321.4
2014-Sep-22 10:08N 63°07' E 007°46'6518.0
2014-Sep-22 06:31N 63°29' E 010°03'1010.3
2014-Sep-22 05:34N 63°26' E 010°24'1 0.2
2014-Sep-21 21:34N 63°27' E 010°21'0 0.1
2014-Sep-21 18:34N 63°27' E 010°22'6 6.5
2014-Sep-21 17:34N 63°28' E 010°08'3 0.4
2014-Sep-21 10:32N 63°29' E 010°02'1010.4
2014-Sep-21 09:34N 63°26' E 010°24'1 0.1
2014-Sep-20 19:34N 63°27' E 010°22'1 0.8
2014-Sep-20 18:34N 63°26' E 010°24'0 0.0
2014-Sep-20 17:34N 63°26' E 010°24'0 0.0
2014-Sep-20 16:34N 63°26' E 010°24'9 8.8
2014-Sep-20 15:33N 63°29' E 010°05'7 0.3
2014-Sep-19 15:05N 63°30' E 009°50'1528.2
2014-Sep-19 14:34N 63°27' E 010°22'2 1.5
2014-Sep-19 13:34N 63°27' E 010°19'8 1.1
2014-Sep-19 06:31N 63°29' E 010°02'1010.3
2014-Sep-19 05:34N 63°26' E 010°24'10 1.0
2014-Sep-18 19:22N 63°29' E 010°02'1012.5
2014-Sep-18 18:34N 63°26' E 010°24'8 1.0
2014-Sep-18 10:34N 63°28' E 010°06'8 8.4
2014-Sep-18 09:34N 63°26' E 010°24'61 6.8
2014-Sep-18 00:28N 63°17' E 008°08'0 0.0
2014-Sep-17 22:05N 63°17' E 008°08'0 0.0
2014-Sep-17 21:22N 63°17' E 008°08'61 8.9
2014-Sep-17 14:34N 63°26' E 010°22'0 0.3
2014-Sep-17 13:34N 63°26' E 010°23'9 1.3
2014-Sep-17 06:30N 63°29' E 010°03'1010.2
2014-Sep-17 05:34N 63°26' E 010°24'10 1.0
2014-Sep-16 19:21N 63°29' E 010°02'1012.6
2014-Sep-16 18:33N 63°26' E 010°24'8 1.0
2014-Sep-16 10:34N 63°28' E 010°07'8 7.7
2014-Sep-16 09:33N 63°26' E 010°24'16 0.9
2014-Sep-15 15:07N 63°31' E 009°50'1526.5
2014-Sep-15 14:34N 63°27' E 010°22'1 0.6
2014-Sep-15 13:33N 63°26' E 010°23'10 1.4
2014-Sep-15 06:31N 63°29' E 010°02'1010.5
2014-Sep-15 05:33N 63°26' E 010°24'0 0.0
2014-Sep-14 18:34N 63°26' E 010°23'8 8.3
2014-Sep-14 17:33N 63°28' E 010°06'6720.2
2014-Sep-14 14:14N 63°07' E 007°44'6617.9
2014-Sep-14 10:33N 63°29' E 010°03'10 9.8
2014-Sep-14 09:33N 63°26' E 010°24'0 0.0
2014-Sep-13 19:33N 63°26' E 010°23'0 0.3
2014-Sep-13 18:34N 63°26' E 010°24'0 0.0
2014-Sep-13 17:34N 63°26' E 010°24'0 0.0
2014-Sep-13 16:33N 63°26' E 010°24'9 8.9
2014-Sep-13 15:34N 63°28' E 010°05'9 0.4
2014-Sep-12 14:34N 63°26' E 010°24'  
Track history (hours):
 
Tides and Currents Weather Stations Pressure Air Temp Water Temp Dewpoint Dewpoint Depression Visibility Wind Speed Wind Dir Waves Ship Positions

Morejarl

Last reported at 2014-Sep-22 14:34 UTC. Time now 2014-Sep-23 06:22 UTC.
Position N 63°26' E 010°23'.

Length 35 m; draft 1.9 m.

Type: High speed craft. MMSI: 258561000.

Date/timePositionNaut miles runAvg speedWind from/ knotsBaromVisibWave heightAir tempDewpointWater temp
2014-Sep-22 14:34N 63°26' E 010°23'0 0.4
2014-Sep-22 13:34N 63°26' E 010°24'7321.4
2014-Sep-22 10:08N 63°07' E 007°46'6518.0
2014-Sep-22 06:31N 63°29' E 010°03'1010.3
2014-Sep-22 05:34N 63°26' E 010°24'1 0.2
2014-Sep-21 21:34N 63°27' E 010°21'0 0.1
2014-Sep-21 18:34N 63°27' E 010°22'6 6.5
2014-Sep-21 17:34N 63°28' E 010°08'3 0.4
2014-Sep-21 10:32N 63°29' E 010°02'1010.4
2014-Sep-21 09:34N 63°26' E 010°24'1 0.1
2014-Sep-20 19:34N 63°27' E 010°22'1 0.8
2014-Sep-20 18:34N 63°26' E 010°24'0 0.0
2014-Sep-20 17:34N 63°26' E 010°24'0 0.0
2014-Sep-20 16:34N 63°26' E 010°24'9 8.8
2014-Sep-20 15:33N 63°29' E 010°05'7 0.3
2014-Sep-19 15:05N 63°30' E 009°50'1528.2
2014-Sep-19 14:34N 63°27' E 010°22'2 1.5
2014-Sep-19 13:34N 63°27' E 010°19'8 1.1
2014-Sep-19 06:31N 63°29' E 010°02'1010.3
2014-Sep-19 05:34N 63°26' E 010°24'10 1.0
2014-Sep-18 19:22N 63°29' E 010°02'1012.5
2014-Sep-18 18:34N 63°26' E 010°24'8 1.0
2014-Sep-18 10:34N 63°28' E 010°06'8 8.4
2014-Sep-18 09:34N 63°26' E 010°24'61 6.8
2014-Sep-18 00:28N 63°17' E 008°08'0 0.0
2014-Sep-17 22:05N 63°17' E 008°08'0 0.0
2014-Sep-17 21:22N 63°17' E 008°08'61 8.9
2014-Sep-17 14:34N 63°26' E 010°22'0 0.3
2014-Sep-17 13:34N 63°26' E 010°23'9 1.3
2014-Sep-17 06:30N 63°29' E 010°03'1010.2
2014-Sep-17 05:34N 63°26' E 010°24'10 1.0
2014-Sep-16 19:21N 63°29' E 010°02'1012.6
2014-Sep-16 18:33N 63°26' E 010°24'8 1.0
2014-Sep-16 10:34N 63°28' E 010°07'8 7.7
2014-Sep-16 09:33N 63°26' E 010°24'16 0.9
2014-Sep-15 15:07N 63°31' E 009°50'1526.5
2014-Sep-15 14:34N 63°27' E 010°22'1 0.6
2014-Sep-15 13:33N 63°26' E 010°23'10 1.4
2014-Sep-15 06:31N 63°29' E 010°02'1010.5
2014-Sep-15 05:33N 63°26' E 010°24'0 0.0
2014-Sep-14 18:34N 63°26' E 010°23'8 8.3
2014-Sep-14 17:33N 63°28' E 010°06'6720.2
2014-Sep-14 14:14N 63°07' E 007°44'6617.9
2014-Sep-14 10:33N 63°29' E 010°03'10 9.8
2014-Sep-14 09:33N 63°26' E 010°24'0 0.0
2014-Sep-13 19:33N 63°26' E 010°23'0 0.3
2014-Sep-13 18:34N 63°26' E 010°24'0 0.0
2014-Sep-13 17:34N 63°26' E 010°24'0 0.0
2014-Sep-13 16:33N 63°26' E 010°24'9 8.9
2014-Sep-13 15:34N 63°28' E 010°05'9 0.4
2014-Sep-12 14:34N 63°26' E 010°24'  

Dump ship's entire track history